Time;durP1;ratioP1;P1;durP2;ratioP2;P2;SDS_P1;SDS_P2;PMS_P1;PMS_P2;Temp;Humidity;BMP_temperature;BMP_pressure;BME280_temperature;BME280_humidity;BME280_pressure;Samples;Min_cycle;Max_cycle;Signal;HPM_P1;HPM_P2
2023/08/17 00:00:51;;;;;;;10.85;7.70;;;;;;;26.61;62.16;100144.50;4472594;32;33853;-76
2023/08/17 00:03:19;;;;;;;8.95;7.62;;;;;;;26.90;61.07;100140.50;4474586;32;34466;-75
2023/08/17 00:05:47;;;;;;;10.10;7.22;;;;;;;27.19;60.23;100135.53;4472303;32;33764;-76
2023/08/17 00:08:14;;;;;;;9.43;7.73;;;;;;;26.38;62.91;100137.72;4479542;32;33494;-75
2023/08/17 00:10:42;;;;;;;11.03;7.60;;;;;;;26.79;61.65;100133.59;4480448;32;35170;-75
2023/08/17 00:13:09;;;;;;;10.15;7.20;;;;;;;27.20;60.05;100137.31;4467780;32;33577;-75
2023/08/17 00:15:37;;;;;;;8.50;7.00;;;;;;;27.49;59.43;100129.69;4477304;32;33558;-75
2023/08/17 00:18:04;;;;;;;8.15;6.70;;;;;;;27.70;58.65;100133.72;4463896;32;33338;-75
2023/08/17 00:20:32;;;;;;;9.60;6.60;;;;;;;27.42;59.13;100128.97;4482405;32;34446;-75
2023/08/17 00:22:59;;;;;;;9.88;6.70;;;;;;;27.40;59.29;100136.09;4481072;32;33874;-75
2023/08/17 00:25:27;;;;;;;9.40;6.93;;;;;;;27.53;58.88;100118.13;4480490;32;33509;-75
2023/08/17 00:27:54;;;;;;;10.55;7.37;;;;;;;26.88;60.69;100122.78;4482262;32;33074;-75
2023/08/17 00:30:22;;;;;;;9.93;7.82;;;;;;;26.73;61.57;100116.84;4481508;32;34631;-75
2023/08/17 00:32:50;;;;;;;10.82;7.68;;;;;;;27.29;59.77;100117.66;4481916;32;33764;-75
2023/08/17 00:35:20;;;;;;;10.48;7.53;;;;;;;27.30;59.79;100118.56;4480672;32;33490;-75
2023/08/17 00:37:47;;;;;;;12.05;8.07;;;;;;;27.48;58.95;100112.88;4480865;32;33743;-75
2023/08/17 00:40:15;;;;;;;10.38;7.90;;;;;;;27.35;59.45;100108.69;4474223;32;34926;-75
2023/08/17 00:42:42;;;;;;;11.32;8.43;;;;;;;26.86;61.16;100108.66;4474480;32;33663;-75
2023/08/17 00:45:10;;;;;;;9.33;7.37;;;;;;;27.09;60.61;100099.41;4476361;32;34319;-75
2023/08/17 00:47:38;;;;;;;9.75;7.93;;;;;;;26.47;62.61;100104.84;4483404;32;33919;-75
2023/08/17 00:50:06;;;;;;;9.70;7.72;;;;;;;26.71;62.02;100111.56;4484269;32;34570;-75
2023/08/17 00:52:34;;;;;;;11.70;8.23;;;;;;;26.66;61.83;100106.34;4475792;32;33875;-75
2023/08/17 00:55:02;;;;;;;8.63;7.25;;;;;;;26.86;61.61;100113.09;4465510;32;34346;-75
2023/08/17 00:57:30;;;;;;;10.27;7.40;;;;;;;27.43;59.68;100120.09;4482422;32;34115;-75
2023/08/17 00:59:58;;;;;;;9.50;7.10;;;;;;;27.19;60.07;100119.59;4473155;32;34103;-75
2023/08/17 01:02:34;;;;;;;11.75;7.50;;;;;;;27.32;59.37;100119.41;4480626;32;33243;-75
2023/08/17 01:05:02;;;;;;;9.18;7.72;;;;;;;27.04;60.27;100133.16;4479968;32;34651;-75
2023/08/17 01:07:30;;;;;;;10.15;7.72;;;;;;;26.57;61.53;100122.37;4482310;32;33190;-75
2023/08/17 01:09:58;;;;;;;9.77;7.30;;;;;;;26.64;61.42;100133.84;4474919;32;33923;-75
2023/08/17 01:12:33;;;;;;;10.20;7.53;;;;;;;26.29;62.44;100129.91;4468516;32;33528;-75
2023/08/17 01:15:24;;;;;;;8.63;7.22;;;;;;;26.82;60.74;100133.53;4464057;32;33441;-75
2023/08/17 01:17:59;;;;;;;10.15;8.15;;;;;;;26.83;60.62;100135.28;4466820;32;33210;-75
2023/08/17 01:20:27;;;;;;;10.23;8.50;;;;;;;26.10;63.06;100137.25;4479506;32;33886;-75
2023/08/17 01:22:59;;;;;;;9.82;7.87;;;;;;;26.62;61.42;100135.66;4464234;32;33624;-76
2023/08/17 01:25:26;;;;;;;10.30;8.00;;;;;;;26.05;63.42;100144.38;4464700;32;33311;-76
2023/08/17 01:27:54;;;;;;;10.33;8.40;;;;;;;26.44;62.26;100137.66;4478022;32;32840;-75
2023/08/17 01:30:21;;;;;;;9.00;7.50;;;;;;;26.71;61.41;100139.94;4483125;32;33628;-75
2023/08/17 01:33:07;;;;;;;9.23;7.60;;;;;;;26.82;60.81;100133.53;4482781;32;33763;-75
2023/08/17 01:35:53;;;;;;;9.60;7.10;;;;;;;27.00;60.38;100134.12;4482299;32;33482;-75
2023/08/17 01:38:22;;;;;;;10.18;7.62;;;;;;;26.84;60.50;100131.72;4481795;32;33354;-75
2023/08/17 01:40:50;;;;;;;11.63;7.50;;;;;;;26.52;61.61;100137.53;4471616;32;33706;-75
2023/08/17 01:43:19;;;;;;;9.18;7.80;;;;;;;26.65;61.26;100130.28;4457624;32;34479;-75
2023/08/17 01:45:47;;;;;;;10.02;7.53;;;;;;;26.71;61.18;100124.84;4483408;32;34443;-75
2023/08/17 01:48:15;;;;;;;10.55;7.80;;;;;;;26.89;60.52;100129.00;4469411;32;33087;-75
2023/08/17 01:50:43;;;;;;;8.82;7.22;;;;;;;26.97;60.08;100121.78;4482539;32;33930;-75
2023/08/17 01:53:11;;;;;;;10.10;8.00;;;;;;;26.97;60.39;100120.91;4483425;32;33889;-75
2023/08/17 01:55:39;;;;;;;10.27;7.82;;;;;;;26.92;60.34;100122.75;4468266;32;34216;-75
2023/08/17 01:58:07;;;;;;;12.18;7.80;;;;;;;26.52;61.71;100113.62;4482808;32;33264;-75
2023/08/17 02:00:34;;;;;;;12.52;8.20;;;;;;;26.44;62.13;100120.81;4477719;32;33698;-75
2023/08/17 02:03:02;;;;;;;9.10;7.05;;;;;;;27.12;60.06;100115.31;4469806;32;33400;-75
2023/08/17 02:05:30;;;;;;;9.40;6.95;;;;;;;27.10;60.24;100121.53;4476371;32;33732;-75
2023/08/17 02:07:57;;;;;;;10.40;7.03;;;;;;;26.83;60.50;100122.00;4474891;32;33837;-75
2023/08/17 02:10:28;;;;;;;10.63;7.10;;;;;;;26.95;60.06;100122.72;4482150;32;32478;-75
2023/08/17 02:12:55;;;;;;;9.63;8.20;;;;;;;26.58;61.26;100128.56;4482849;32;33680;-75
2023/08/17 02:15:39;;;;;;;10.75;7.78;;;;;;;26.92;60.38;100122.75;4481135;32;32845;-75
2023/08/17 02:18:07;;;;;;;10.07;8.45;;;;;;;26.97;60.57;100126.22;4468251;32;32435;-75
2023/08/17 02:20:35;;;;;;;8.55;7.30;;;;;;;27.00;60.44;100131.47;4483280;32;34749;-75
2023/08/17 02:23:04;;;;;;;9.57;7.78;;;;;;;26.82;61.37;100122.03;4482204;32;32333;-75
2023/08/17 02:25:35;;;;;;;9.10;7.20;;;;;;;25.93;64.37;100121.53;4471629;32;34387;-76
2023/08/17 02:28:03;;;;;;;10.32;7.43;;;;;;;26.48;62.93;100128.75;4478543;31;33517;-76
2023/08/17 02:30:31;;;;;;;10.75;7.37;;;;;;;26.49;62.48;100134.91;4482627;32;34027;-76
2023/08/17 02:32:59;;;;;;;9.80;7.93;;;;;;;26.44;62.83;100132.34;4483456;32;33754;-76
2023/08/17 02:35:26;;;;;;;10.15;7.90;;;;;;;27.11;60.89;100133.94;4481074;32;33746;-76
2023/08/17 02:37:54;;;;;;;10.05;7.62;;;;;;;26.51;62.54;100132.25;4475980;32;33035;-76
2023/08/17 02:40:22;;;;;;;8.65;7.05;;;;;;;26.97;61.21;100132.41;4483414;32;34422;-75
2023/08/17 02:42:49;;;;;;;10.35;6.87;;;;;;;27.50;59.18;100127.03;4482070;32;34489;-75
2023/08/17 02:45:17;;;;;;;10.13;7.32;;;;;;;27.70;58.28;100123.06;4481764;32;33752;-75
2023/08/17 02:47:44;;;;;;;11.93;7.37;;;;;;;27.84;57.54;100126.34;4480530;32;33253;-75
2023/08/17 02:50:14;;;;;;;12.43;7.35;;;;;;;27.50;58.51;100121.69;4482916;32;33452;-75
2023/08/17 02:52:42;;;;;;;10.87;7.93;;;;;;;27.53;58.54;100121.66;4481322;32;33848;-75
2023/08/17 02:55:10;;;;;;;10.95;7.97;;;;;;;26.48;62.00;100118.13;4479997;32;34380;-75
2023/08/17 02:57:38;;;;;;;10.40;7.63;;;;;;;26.59;62.11;100114.44;4476693;32;34071;-75
2023/08/17 03:00:06;;;;;;;11.00;8.07;;;;;;;26.46;62.75;100119.00;4477209;32;34482;-75
2023/08/17 03:02:33;;;;;;;12.02;8.27;;;;;;;26.48;62.79;100112.78;4480226;32;34489;-75
2023/08/17 03:05:03;;;;;;;10.98;9.30;;;;;;;26.42;63.14;100109.34;4482819;32;33650;-75
2023/08/17 03:07:30;;;;;;;12.05;8.40;;;;;;;26.85;61.96;100112.22;4482270;32;33037;-75
2023/08/17 03:09:58;;;;;;;10.20;8.48;;;;;;;26.86;61.97;100113.09;4481937;32;33352;-75
2023/08/17 03:12:25;;;;;;;12.25;8.73;;;;;;;26.80;62.28;100119.38;4475083;32;33652;-75
2023/08/17 03:14:53;;;;;;;8.50;7.53;;;;;;;26.91;61.87;100110.34;4468156;32;33084;-75
2023/08/17 03:17:20;;;;;;;11.87;8.67;;;;;;;26.72;62.30;100117.78;4482247;32;33294;-75
2023/08/17 03:19:48;;;;;;;10.35;7.95;;;;;;;26.84;62.27;100110.47;4477260;32;34421;-75
2023/08/17 03:22:16;;;;;;;10.82;8.77;;;;;;;26.66;62.89;100126.72;4467855;32;33554;-75
2023/08/17 03:24:43;;;;;;;9.95;8.80;;;;;;;26.84;62.54;100121.09;4482328;32;34297;-75
2023/08/17 03:27:11;;;;;;;11.10;9.30;;;;;;;26.55;63.55;100115.34;4481959;32;33421;-75
2023/08/17 03:29:39;;;;;;;12.25;8.88;;;;;;;27.03;62.02;100115.47;4482581;32;34455;-75
2023/08/17 03:32:07;;;;;;;9.73;8.50;;;;;;;26.64;63.39;100112.59;4482435;32;33685;-75
2023/08/17 03:34:35;;;;;;;10.15;8.65;;;;;;;26.55;63.56;100112.69;4474105;32;33461;-75
2023/08/17 03:37:04;;;;;;;13.77;9.73;;;;;;;26.81;62.82;100107.88;4479416;32;33454;-75
2023/08/17 03:39:32;;;;;;;12.02;8.90;;;;;;;26.74;63.26;100103.56;4461146;32;32106;-75
2023/08/17 03:41:59;;;;;;;10.15;8.27;;;;;;;26.95;62.56;100109.41;4482509;32;33682;-75
2023/08/17 03:44:27;;;;;;;11.95;8.45;;;;;;;27.16;61.57;100109.03;4482656;32;35296;-75
2023/08/17 03:46:55;;;;;;;11.23;8.82;;;;;;;26.97;62.15;100110.25;4479003;32;34265;-76
2023/08/17 03:49:22;;;;;;;12.70;9.07;;;;;;;26.54;63.40;100111.81;4482472;32;33337;-76
2023/08/17 03:51:50;;;;;;;11.35;8.73;;;;;;;26.26;64.96;100103.41;4482482;32;33570;-76
2023/08/17 03:54:18;;;;;;;11.25;8.40;;;;;;;27.19;61.59;100103.62;4481864;32;34499;-76
2023/08/17 03:56:47;;;;;;;12.57;9.02;;;;;;;27.24;61.03;100101.81;4479289;32;33105;-75
2023/08/17 03:59:14;;;;;;;12.80;8.77;;;;;;;26.58;63.13;100108.22;4482253;32;33398;-75
2023/08/17 04:01:42;;;;;;;11.00;8.70;;;;;;;27.53;60.09;100100.38;4482615;32;33615;-75
2023/08/17 04:04:10;;;;;;;10.47;8.90;;;;;;;27.89;58.76;100108.50;4482701;32;33848;-75
2023/08/17 04:06:39;;;;;;;10.65;8.32;;;;;;;27.80;58.96;100114.00;4482305;32;33195;-75
2023/08/17 04:09:07;;;;;;;10.95;8.73;;;;;;;27.61;59.18;100113.50;4480824;32;33295;-77
2023/08/17 04:11:36;;;;;;;12.27;8.50;;;;;;;27.49;59.56;100113.75;4473621;32;33718;-77
2023/08/17 04:14:04;;;;;;;11.55;8.45;;;;;;;27.45;59.73;100112.94;4479199;32;34455;-78
2023/08/17 04:16:33;;;;;;;11.32;8.35;;;;;;;27.42;59.59;100108.53;4472617;32;33851;-75
2023/08/17 04:19:01;;;;;;;11.07;8.90;;;;;;;26.86;61.63;100115.75;4479738;31;34488;-78
2023/08/17 04:21:29;;;;;;;11.35;9.10;;;;;;;26.95;61.47;100117.41;4479355;32;33366;-76
2023/08/17 04:23:57;;;;;;;12.97;9.17;;;;;;;27.04;61.38;100122.53;4483769;32;34314;-78
2023/08/17 04:26:25;;;;;;;12.53;10.10;;;;;;;26.97;61.50;100124.44;4483252;32;33160;-79
2023/08/17 04:28:53;;;;;;;13.30;9.43;;;;;;;26.71;62.46;100119.53;4468265;32;33094;-78
2023/08/17 04:31:20;;;;;;;11.65;9.98;;;;;;;27.17;61.18;100117.88;4479641;32;33756;-77
2023/08/17 04:33:51;;;;;;;12.20;10.13;;;;;;;27.11;61.45;100118.00;4479001;32;33227;-75
2023/08/17 04:36:19;;;;;;;13.77;10.07;;;;;;;27.31;60.90;100113.19;4484132;32;33501;-77
2023/08/17 04:38:46;;;;;;;12.37;9.27;;;;;;;27.41;60.59;100117.44;4476895;32;33887;-76
2023/08/17 04:41:14;;;;;;;11.48;9.98;;;;;;;27.30;60.95;100123.88;4479935;32;34177;-79
2023/08/17 04:43:42;;;;;;;12.10;9.80;;;;;;;27.04;62.08;100117.19;4481050;32;33729;-78
2023/08/17 04:46:10;;;;;;;12.70;10.40;;;;;;;26.90;62.46;100117.44;4480581;32;33424;-78
2023/08/17 04:48:39;;;;;;;13.90;10.80;;;;;;;26.93;62.48;100120.06;4480202;32;33734;-79
2023/08/17 04:51:06;;;;;;;12.15;10.35;;;;;;;27.23;61.72;100121.28;4483259;32;34196;-81
2023/08/17 04:53:34;;;;;;;12.82;10.10;;;;;;;26.95;62.80;100122.72;4482869;32;33798;-77
2023/08/17 04:56:02;;;;;;;11.63;9.93;;;;;;;26.96;62.75;100125.31;4443845;32;31956;-80
2023/08/17 04:58:30;;;;;;;12.43;9.20;;;;;;;26.75;63.59;100131.00;4479197;32;33764;-77
2023/08/17 05:00:59;;;;;;;13.35;10.50;;;;;;;26.80;63.40;100137.12;4480584;32;34399;-77
2023/08/17 05:03:27;;;;;;;12.60;10.77;;;;;;;26.93;62.97;100129.84;4482812;32;33967;-78
2023/08/17 05:06:00;;;;;;;12.55;10.13;;;;;;;26.90;62.94;100124.56;4476433;32;32794;-76
2023/08/17 05:08:28;;;;;;;10.73;9.15;;;;;;;27.24;61.75;100128.41;4481321;32;33418;-76
2023/08/17 05:10:55;;;;;;;11.50;9.63;;;;;;;27.08;61.90;100129.53;4476936;32;33848;-78
2023/08/17 05:13:24;;;;;;;13.20;10.03;;;;;;;27.10;62.11;100122.44;4475928;31;33470;-79
2023/08/17 05:15:53;;;;;;;12.25;10.02;;;;;;;26.85;62.98;100132.63;4480921;32;33379;-76
2023/08/17 05:18:21;;;;;;;10.52;9.23;;;;;;;27.57;61.01;100128.66;4483605;32;33746;-77
2023/08/17 05:20:49;;;;;;;11.32;10.00;;;;;;;27.74;60.18;100130.09;4483446;32;33672;-78
2023/08/17 05:23:16;;;;;;;11.30;9.93;;;;;;;27.64;60.59;100124.97;4478202;32;33850;-75
2023/08/17 05:25:48;;;;;;;12.93;9.73;;;;;;;27.74;60.43;100119.44;4477817;32;33748;-78
2023/08/17 05:28:15;;;;;;;13.33;9.83;;;;;;;27.77;60.67;100127.38;4475734;32;34286;-80
2023/08/17 05:30:43;;;;;;;11.48;9.48;;;;;;;28.27;59.15;100120.09;4475030;32;34422;-78
2023/08/17 05:33:11;;;;;;;11.63;9.57;;;;;;;27.83;60.46;100119.25;4477055;32;34022;-81
2023/08/17 05:35:38;;;;;;;12.45;9.63;;;;;;;27.94;60.10;100116.41;4481853;32;33217;-78
2023/08/17 05:38:06;;;;;;;12.93;8.98;;;;;;;28.12;59.69;100121.31;4480547;32;34142;-76
2023/08/17 05:40:34;;;;;;;11.70;9.10;;;;;;;27.98;60.29;100124.28;4483912;32;33888;-80
2023/08/17 05:43:02;;;;;;;12.13;9.03;;;;;;;28.44;58.28;100123.25;4478922;32;35090;-75
2023/08/17 05:45:30;;;;;;;12.93;9.17;;;;;;;28.27;58.35;100120.09;4481398;32;33874;-77
2023/08/17 05:47:57;;;;;;;11.30;9.27;;;;;;;28.16;59.02;100124.78;4483321;32;33301;-78
2023/08/17 05:50:25;;;;;;;14.10;10.05;;;;;;;28.33;58.35;100125.28;4475794;32;33436;-76
2023/08/17 05:52:53;;;;;;;11.85;9.40;;;;;;;28.58;57.72;100124.75;4474286;32;33647;-78
2023/08/17 05:55:23;;;;;;;12.27;9.13;;;;;;;28.57;57.86;100123.88;4480435;32;33054;-76
2023/08/17 05:57:51;;;;;;;11.80;9.57;;;;;;;28.16;59.50;100122.13;4482664;32;33825;-80
2023/08/17 06:00:18;;;;;;;11.02;9.77;;;;;;;28.23;59.34;100129.94;4476360;32;33766;-77
2023/08/17 06:02:51;;;;;;;13.73;10.00;;;;;;;28.36;59.15;100125.22;4477437;32;32246;-75
2023/08/17 06:05:19;;;;;;;11.80;9.70;;;;;;;28.30;60.10;100128.03;4476107;32;33389;-78
2023/08/17 06:07:46;;;;;;;11.15;8.85;;;;;;;28.31;60.46;100127.09;4466675;32;33220;-80
2023/08/17 06:10:14;;;;;;;10.60;9.02;;;;;;;28.48;59.68;100123.19;4470340;32;33406;-80
2023/08/17 06:12:41;;;;;;;11.43;8.33;;;;;;;28.63;59.08;100123.72;4475928;31;33706;-74
2023/08/17 06:15:09;;;;;;;11.53;8.60;;;;;;;29.35;55.80;100120.12;4474596;32;33684;-76
2023/08/17 06:17:37;;;;;;;13.60;8.73;;;;;;;28.92;56.05;100129.25;4480928;32;34581;-74
2023/08/17 06:20:05;;;;;;;11.07;9.55;;;;;;;28.69;57.32;100122.69;4479555;32;33332;-78
2023/08/17 06:22:32;;;;;;;18.27;10.20;;;;;;;28.73;57.83;100112.84;4473896;32;33446;-77
2023/08/17 06:25:00;;;;;;;13.68;9.80;;;;;;;28.75;58.38;100111.00;4469500;32;33148;-78
2023/08/17 06:27:27;;;;;;;17.10;10.25;;;;;;;28.64;58.84;100113.94;4481179;32;33401;-78
2023/08/17 06:29:56;;;;;;;13.73;9.47;;;;;;;28.50;59.79;100113.38;4470710;32;33893;-79
2023/08/17 06:32:23;;;;;;;11.07;8.75;;;;;;;29.19;58.33;100123.22;4477107;32;34404;-79
2023/08/17 06:34:51;;;;;;;12.25;9.68;;;;;;;29.20;57.51;100114.28;4467361;32;32724;-80
2023/08/17 06:37:18;;;;;;;11.23;8.88;;;;;;;29.01;57.95;100118.31;4476471;32;33710;-77
2023/08/17 06:39:46;;;;;;;10.07;8.30;;;;;;;29.70;55.36;100115.59;4452947;32;34709;-78
2023/08/17 06:42:13;;;;;;;11.23;8.50;;;;;;;29.87;54.40;100099.97;4472308;32;33472;-81
2023/08/17 06:44:41;;;;;;;9.70;8.18;;;;;;;30.01;53.10;100096.03;4456299;32;31671;-81
2023/08/17 06:47:08;;;;;;;13.82;9.50;;;;;;;29.87;52.76;100083.97;4477436;32;34577;-81
2023/08/17 06:49:36;;;;;;;14.48;9.75;;;;;;;29.62;53.55;100093.59;4460381;32;33736;-78
2023/08/17 06:52:22;;;;;;;19.10;10.32;;;;;;;29.40;54.99;100096.88;4458655;32;33452;-76
2023/08/17 06:54:50;;;;;;;11.02;9.52;;;;;;;29.16;56.82;100101.94;4480482;32;32565;-84
2023/08/17 06:57:18;;;;;;;11.80;9.60;;;;;;;29.83;54.14;100084.97;4470967;32;33962;-80
2023/08/17 06:59:46;;;;;;;12.30;9.25;;;;;;;29.31;56.39;100094.47;4474759;32;33766;-82
2023/08/17 07:02:13;;;;;;;12.20;9.30;;;;;;;29.63;55.97;100095.31;4483118;32;33996;-81
2023/08/17 07:04:41;;;;;;;12.23;9.40;;;;;;;29.67;55.42;100087.19;4481990;32;33287;-79
2023/08/17 07:07:09;;;;;;;12.10;9.15;;;;;;;30.17;53.27;100097.28;4481261;32;33932;-83
2023/08/17 07:09:36;;;;;;;11.02;8.52;;;;;;;30.16;52.15;100100.88;4479165;32;33852;-79
2023/08/17 07:12:04;;;;;;;11.70;8.70;;;;;;;30.14;51.74;100106.28;4468025;32;31971;-83
2023/08/17 07:14:33;;;;;;;10.73;8.50;;;;;;;30.25;52.24;100105.94;4480816;32;32448;-78
2023/08/17 07:17:01;;;;;;;10.45;8.63;;;;;;;30.19;51.82;100107.00;4478962;32;33612;-76
2023/08/17 07:19:28;;;;;;;13.80;8.80;;;;;;;30.45;50.49;100112.47;4479630;32;33740;-77
2023/08/17 07:22:19;;;;;;;11.55;8.70;;;;;;;30.24;51.01;100112.19;4474325;32;33078;-83
2023/08/17 07:24:47;;;;;;;10.75;8.65;;;;;;;30.10;51.33;100112.63;4482762;32;33194;-76
2023/08/17 07:27:14;;;;;;;11.82;8.38;;;;;;;30.52;50.84;100108.66;4481405;32;32244;-76
2023/08/17 07:29:42;;;;;;;10.67;8.73;;;;;;;30.96;48.58;100119.72;4470077;32;33938;-81
2023/08/17 07:32:09;;;;;;;11.73;8.55;;;;;;;30.45;49.77;100113.34;4479295;32;33757;-79
2023/08/17 07:34:37;;;;;;;10.63;8.75;;;;;;;30.40;50.19;100107.25;4478176;32;33334;-80
2023/08/17 07:37:05;;;;;;;10.10;8.73;;;;;;;30.54;49.95;100106.84;4480967;32;34524;-74
2023/08/17 07:39:33;;;;;;;11.05;9.07;;;;;;;30.58;50.18;100100.47;4476844;32;33335;-79
2023/08/17 07:42:01;;;;;;;11.43;9.33;;;;;;;30.70;51.50;100101.84;4477894;32;33846;-81
2023/08/17 07:44:31;;;;;;;10.77;9.10;;;;;;;30.22;51.76;100111.37;4480339;32;34202;-78
2023/08/17 07:46:59;;;;;;;11.63;9.45;;;;;;;30.40;51.55;100101.91;4480181;32;32834;-78
2023/08/17 07:49:28;;;;;;;11.00;9.23;;;;;;;30.51;50.96;100106.94;4464988;32;33414;-82
2023/08/17 07:52:16;;;;;;;11.30;8.73;;;;;;;30.43;51.01;100111.66;4466412;32;33783;-77
2023/08/17 07:54:45;;;;;;;10.25;8.80;;;;;;;30.69;50.30;100111.66;4476317;32;34744;-77
2023/08/17 07:57:12;;;;;;;12.05;9.32;;;;;;;30.99;49.52;100119.63;4476696;32;33579;-80
2023/08/17 07:59:40;;;;;;;13.20;9.65;;;;;;;30.59;50.58;100120.91;4477358;32;33662;-76
2023/08/17 08:02:08;;;;;;;10.77;9.10;;;;;;;30.87;50.28;100115.53;4475469;32;33524;-76
2023/08/17 08:04:36;;;;;;;11.73;9.30;;;;;;;30.79;50.14;100117.59;4481668;32;32976;-76
2023/08/17 08:07:03;;;;;;;11.75;9.15;;;;;;;31.16;49.82;100114.56;4481444;32;33457;-76
2023/08/17 08:09:31;;;;;;;11.17;8.43;;;;;;;30.89;49.96;100120.84;4482328;32;33967;-76
2023/08/17 08:11:59;;;;;;;9.33;7.57;;;;;;;31.07;48.67;100117.53;4481691;32;34013;-76
2023/08/17 08:14:26;;;;;;;9.55;7.30;;;;;;;31.28;47.07;100115.03;4482671;32;33011;-76
2023/08/17 08:16:53;;;;;;;11.45;7.65;;;;;;;31.24;46.58;100113.41;4482374;32;35089;-76
2023/08/17 08:19:22;;;;;;;10.48;7.68;;;;;;;31.06;47.62;100104.22;4482417;32;33688;-76
2023/08/17 08:21:49;;;;;;;9.95;7.18;;;;;;;30.76;47.83;100110.53;4472602;32;33707;-76
2023/08/17 08:24:16;;;;;;;8.45;6.80;;;;;;;30.69;48.27;100113.47;4472100;32;34192;-76
2023/08/17 08:27:01;;;;;;;10.33;7.03;;;;;;;31.07;47.82;100114.00;4482095;32;33859;-76
2023/08/17 08:29:29;;;;;;;7.70;6.45;;;;;;;31.36;46.49;100104.94;4481910;32;33560;-76
2023/08/17 08:31:59;;;;;;;9.13;6.90;;;;;;;30.98;47.60;100112.50;4482137;32;33667;-76
2023/08/17 08:34:26;;;;;;;9.68;6.90;;;;;;;31.12;47.48;100120.94;4482294;32;32206;-76
2023/08/17 08:36:54;;;;;;;9.80;6.75;;;;;;;31.06;47.52;100115.81;4482502;32;33328;-76
2023/08/17 08:39:25;;;;;;;8.85;6.87;;;;;;;31.31;47.62;100114.91;4482309;32;33306;-76
2023/08/17 08:41:53;;;;;;;9.05;7.12;;;;;;;31.54;46.05;100115.00;4455398;32;32650;-76
2023/08/17 08:44:20;;;;;;;8.68;6.70;;;;;;;31.66;45.74;100115.47;4475364;32;34054;-76
2023/08/17 08:46:48;;;;;;;9.70;6.90;;;;;;;31.61;46.13;100112.09;4475355;32;34312;-76
2023/08/17 08:49:20;;;;;;;9.38;6.80;;;;;;;31.95;44.93;100106.34;4482031;32;33489;-76
2023/08/17 08:51:49;;;;;;;8.70;6.93;;;;;;;31.65;45.23;100113.72;4481962;32;32898;-76
2023/08/17 08:54:24;;;;;;;9.85;7.37;;;;;;;31.94;45.78;100105.44;4462674;32;33023;-76
2023/08/17 08:56:57;;;;;;;8.45;6.85;;;;;;;31.92;46.02;100096.59;4475116;32;33723;-76
2023/08/17 08:59:26;;;;;;;9.88;6.80;;;;;;;31.73;47.16;100101.78;4481877;32;33291;-76
2023/08/17 09:01:56;;;;;;;9.52;6.82;;;;;;;32.08;46.61;100106.75;4469251;32;33255;-76
2023/08/17 09:04:24;;;;;;;8.35;7.10;;;;;;;32.12;44.53;100105.69;4467687;32;31675;-76
2023/08/17 09:06:51;;;;;;;8.52;6.55;;;;;;;32.38;43.60;100109.16;4472216;32;33239;-76
2023/08/17 09:09:22;;;;;;;7.12;5.22;;;;;;;32.39;44.18;100105.53;4479869;32;34462;-76
2023/08/17 09:11:56;;;;;;;8.25;5.72;;;;;;;32.56;44.35;100107.53;4458095;32;33199;-76
2023/08/17 09:14:24;;;;;;;6.37;5.07;;;;;;;32.63;43.59;100103.69;4484394;32;32885;-76
2023/08/17 09:16:51;;;;;;;6.93;5.10;;;;;;;32.62;43.02;100100.09;4483666;32;33363;-76
2023/08/17 09:19:20;;;;;;;7.28;4.80;;;;;;;32.35;43.92;100101.22;4483928;32;33547;-76
2023/08/17 09:21:47;;;;;;;;;;;;;;;32.65;41.85;100102.69;4485653;32;34164;-76
2023/08/17 09:24:20;;;;;;;;;;;;;;;33.39;41.59;100109.38;4485745;32;34172;-76
2023/08/17 09:26:54;;;;;;;;;;;;;;;33.55;40.39;100091.63;4485919;32;34744;-76
2023/08/17 09:29:22;;;;;;;;;;;;;;;33.58;40.75;100090.63;4485482;32;34407;-76
2023/08/17 09:31:50;;;;;;;;;;;;;;;33.53;40.63;100089.94;4485915;32;34267;-76
2023/08/17 09:34:18;;;;;;;;;;;;;;;33.81;40.05;100082.38;4485672;32;33699;-76
2023/08/17 09:36:46;;;;;;;;;;;;;;;33.40;39.08;100082.47;4476164;32;34098;-76
2023/08/17 09:39:15;;;;;;;;;;;;;;;33.51;39.71;100081.97;4481283;32;35484;-76
2023/08/17 09:41:45;;;;;;;;;;;;;;;33.57;39.23;100078.97;4485530;32;34119;-76
2023/08/17 09:44:13;;;;;;;;;;;;;;;33.73;39.31;100076.50;4485851;32;34213;-76
2023/08/17 09:46:44;;;;;;;;;;;;;;;33.87;39.32;100079.41;4463805;32;34085;-77
2023/08/17 09:49:11;;;;;;;;;;;;;;;33.92;39.85;100081.00;4481086;32;34005;-77
2023/08/17 09:51:42;;;;;;;;;;;;;;;33.96;40.27;100071.84;4464542;32;34064;-77
2023/08/17 09:54:23;;;;;;;;;;;;;;;34.57;39.11;100068.00;4478819;32;30535;-76
2023/08/17 09:56:51;;;;;;;;;;;;;;;34.35;38.94;100069.09;4474795;32;34899;-76
2023/08/17 09:59:19;;;;;;;;;;;;;;;34.69;38.54;100071.91;4447393;32;906057;-77
2023/08/17 10:01:47;;;;;;;;;;;;;;;34.68;37.74;100070.19;4482612;32;33887;-77
2023/08/17 10:04:20;;;;;;;;;;;;;;;34.57;37.71;100063.47;4474766;32;33012;-76
2023/08/17 10:06:48;;;;;;;;;;;;;;;34.56;37.82;100056.38;4481778;32;33522;-76
2023/08/17 10:09:15;;;;;;;;;;;;;;;34.41;38.03;100058.00;4467057;32;34086;-76
2023/08/17 10:11:43;;;;;;;;;;;;;;;34.00;38.59;100062.72;4464228;32;35658;-77
2023/08/17 10:14:13;;;;;;;;;;;;;;;34.63;37.33;100057.78;4463532;32;33285;-76
2023/08/17 10:16:44;;;;;;;;;;;;;;;35.32;37.75;100061.44;4468893;32;33981;-76
2023/08/17 10:19:20;;;;;;;;;;;;;;;36.09;35.77;100057.22;4482745;32;34611;-77
2023/08/17 10:21:50;;;;;;;;;;;;;;;35.49;35.55;100056.97;4456646;32;32882;-77
2023/08/17 10:24:18;;;;;;;;;;;;;;;35.87;36.20;100043.22;4484122;32;34379;-76
2023/08/17 10:26:45;;;;;;;;;;;;;;;35.34;35.52;100062.22;4474690;32;32276;-77
2023/08/17 10:29:13;;;;;;;;;;;;;;;35.68;35.59;100056.84;4480118;32;34413;-77
2023/08/17 10:31:46;;;;;;;;;;;;;;;35.73;35.28;100054.78;4458057;32;34782;-77
2023/08/17 10:34:14;;;;;;;;;;;;;;;35.93;35.26;100053.63;4484072;32;33934;-77
2023/08/17 10:36:41;;;;;;;;;;;;;;;35.74;35.85;100049.31;4482881;32;34652;-77
2023/08/17 10:39:21;;;;;;;;;;;;;;;36.08;34.56;100052.75;4479149;32;34158;-77
2023/08/17 10:41:54;;;;;;;;;;;;;;;35.81;35.02;100055.19;4471456;32;32434;-77
2023/08/17 10:44:42;;;;;;;;;;;;;;;35.88;35.55;100044.97;4479959;32;33119;-76
2023/08/17 10:47:20;;;;;;;;;;;;;;;35.91;35.28;100052.84;4459886;32;34718;-77
2023/08/17 10:49:48;;;;;;;;;;;;;;;36.22;35.25;100052.03;4482309;32;34032;-77
2023/08/17 10:52:18;;;;;;;;;;;;;;;36.30;35.07;100054.28;4482610;32;33859;-77
2023/08/17 10:54:46;;;;;;;;;;;;;;;36.87;33.68;100051.78;4466593;32;33139;-77
2023/08/17 10:57:25;;;;;;;;;;;;;;;36.61;34.02;100047.94;4464205;32;33767;-77
2023/08/17 11:00:07;;;;;;;;;;;;;;;36.95;33.88;100045.91;4477807;32;33924;-77
2023/08/17 11:02:35;;;;;;;;;;;;;;;37.16;34.76;100043.75;4482264;32;34475;-77
2023/08/17 11:05:07;;;;;;;;;;;;;;;37.65;32.69;100040.69;4481038;32;33346;-77
2023/08/17 11:07:43;;;;;;;;;;;;;;;36.50;33.13;100051.25;4481723;32;34685;-76
2023/08/17 11:10:20;;;;;;;;;;;;;;;36.36;34.38;100057.47;4482730;32;34209;-76
2023/08/17 11:12:52;;;;;;;;;;;;;;;36.81;34.82;100044.06;4483723;32;34533;-76
2023/08/17 11:15:20;;;;;;;;;;;;;;;36.64;35.80;100044.16;4484371;32;32452;-77
2023/08/17 11:17:50;;;;;;;;;;;;;;;37.09;34.44;100047.75;4480658;32;34668;-76
2023/08/17 11:20:17;;;;;;;;;;;;;;;36.85;34.07;100045.59;4483906;32;34332;-77
2023/08/17 11:22:45;;;;;;;;;;;;;;;37.50;32.90;100036.25;4477142;32;35038;-76
2023/08/17 11:25:15;;;;;;;;;;;;;;;37.15;33.29;100034.78;4484299;32;34087;-76
2023/08/17 11:27:43;;;;;;;;;;;;;;;36.83;33.52;100043.97;4470179;32;34952;-76
2023/08/17 11:30:12;;;;;;;;;;;;;;;36.74;33.65;100040.87;4471048;32;33534;-77
2023/08/17 11:32:41;;;;;;;;;;;;;;;36.98;33.02;100041.19;4482447;32;35537;-77
2023/08/17 11:35:08;;;;;;;;;;;;;;;36.88;34.04;100047.28;4483813;32;32336;-76
2023/08/17 11:37:39;;;;;;;;;;;;;;;36.91;34.21;100049.75;4483800;32;33980;-75
2023/08/17 11:40:08;;;;;;;;;;;;;;;36.63;33.60;100042.44;4483067;32;33579;-75
2023/08/17 11:42:40;;;;;;;;;;;;;;;36.53;33.58;100034.00;4483738;32;33086;-76